createdAt,value
2023-03-27T00:01:21.890Z,5.55
2023-03-27T00:02:55.036Z,5.47
2023-03-27T00:04:28.450Z,4.80
2023-03-27T00:06:02.010Z,4.82
2023-03-27T00:07:37.104Z,5.00
2023-03-27T00:09:09.998Z,3.90
2023-03-27T00:10:42.936Z,3.25
2023-03-27T00:12:15.792Z,3.42
2023-03-27T00:13:51.124Z,3.42
2023-03-27T00:15:24.513Z,3.40
2023-03-27T00:17:00.074Z,3.25
2023-03-27T00:18:34.255Z,3.63
2023-03-27T00:20:06.664Z,2.70
2023-03-27T00:21:40.582Z,3.33
2023-03-27T00:23:14.797Z,3.33
2023-03-27T00:24:46.578Z,2.70
2023-03-27T00:26:21.404Z,2.95
2023-03-27T00:27:56.282Z,2.63
2023-03-27T00:29:29.005Z,2.72
2023-03-27T00:31:02.022Z,2.05
2023-03-27T00:32:36.202Z,2.65
2023-03-27T00:34:08.898Z,2.20
2023-03-27T00:35:45.414Z,1.90
2023-03-27T00:37:18.285Z,2.28
2023-03-27T00:38:53.100Z,2.30
2023-03-27T00:40:25.859Z,2.15
2023-03-27T00:41:58.594Z,2.20
2023-03-27T00:43:33.911Z,2.50
2023-03-27T00:45:07.940Z,2.25
2023-03-27T00:46:45.358Z,2.45
2023-03-27T00:48:18.772Z,2.20
2023-03-27T00:49:52.098Z,2.10
2023-03-27T00:51:27.724Z,2.25
2023-03-27T00:53:03.228Z,2.22
2023-03-27T00:54:40.411Z,2.45
2023-03-27T00:56:13.463Z,2.47
2023-03-27T00:57:49.751Z,1.95
2023-03-27T00:59:25.607Z,2.50
2023-03-27T01:00:58.087Z,2.28
2023-03-27T01:02:31.207Z,2.03
2023-03-27T01:04:06.546Z,2.20
2023-03-27T01:05:39.376Z,2.70
2023-03-27T01:07:13.091Z,2.30
2023-03-27T01:08:46.116Z,2.40
2023-03-27T01:10:20.615Z,2.03
2023-03-27T01:12:07.671Z,2.03
2023-03-27T01:13:56.745Z,2.33
2023-03-27T01:15:38.415Z,2.33
2023-03-27T01:17:33.348Z,2.17
2023-03-27T01:19:29.338Z,1.98
2023-03-27T01:21:40.176Z,1.90
2023-03-27T01:23:59.559Z,1.70
2023-03-27T01:26:11.957Z,2.38
2023-03-27T01:28:12.371Z,1.92
2023-03-27T01:30:05.769Z,2.10
2023-03-27T01:31:52.683Z,1.50
2023-03-27T01:33:49.821Z,1.92
2023-03-27T01:35:48.023Z,1.88
2023-03-27T01:37:57.220Z,1.83
2023-03-27T01:39:40.055Z,2.00
2023-03-27T01:41:14.826Z,1.92
2023-03-27T01:42:52.512Z,2.17
2023-03-27T01:44:42.570Z,1.90
2023-03-27T01:46:23.728Z,1.90
2023-03-27T01:48:05.219Z,1.85
2023-03-27T01:49:42.353Z,1.88
2023-03-27T01:51:21.428Z,2.20
2023-03-27T01:52:59.934Z,1.85
2023-03-27T01:54:36.618Z,1.60
2023-03-27T01:56:18.297Z,1.83
2023-03-27T01:58:00.744Z,1.63
2023-03-27T01:59:39.309Z,1.85
2023-03-27T02:01:11.753Z,2.42
2023-03-27T02:02:49.054Z,1.75
2023-03-27T02:04:26.463Z,2.25
2023-03-27T02:06:04.906Z,2.35
2023-03-27T02:07:40.801Z,1.70
2023-03-27T02:09:17.369Z,1.77
2023-03-27T02:10:56.864Z,2.30
2023-03-27T02:12:32.721Z,1.95
2023-03-27T02:14:09.023Z,2.40
2023-03-27T02:15:44.833Z,2.45
2023-03-27T02:17:20.346Z,2.30
2023-03-27T02:18:58.104Z,2.30
2023-03-27T02:20:31.305Z,2.00
2023-03-27T02:22:04.362Z,1.60
2023-03-27T02:23:38.316Z,2.58
2023-03-27T02:25:28.287Z,1.55
2023-03-27T02:27:12.731Z,2.00
2023-03-27T02:29:03.420Z,1.60
2023-03-27T02:30:40.285Z,1.80
2023-03-27T02:32:24.959Z,1.63
2023-03-27T02:34:21.838Z,1.40
2023-03-27T02:36:00.297Z,1.80
2023-03-27T02:37:43.952Z,1.77
2023-03-27T02:39:22.896Z,1.65
2023-03-27T02:41:06.257Z,1.98
2023-03-27T02:42:50.145Z,2.25
2023-03-27T02:44:31.084Z,1.70
2023-03-27T02:46:10.423Z,1.88
2023-03-27T02:47:46.613Z,1.70
2023-03-27T02:49:24.924Z,1.77
2023-03-27T02:51:02.043Z,2.03
2023-03-27T02:52:38.583Z,1.77
2023-03-27T02:54:15.842Z,1.98
2023-03-27T02:55:52.605Z,1.67
2023-03-27T02:57:31.627Z,1.90
2023-03-27T02:59:09.923Z,1.98
2023-03-27T03:00:48.838Z,1.90
2023-03-27T03:02:26.777Z,2.20
2023-03-27T03:04:00.816Z,1.70
2023-03-27T03:05:37.206Z,1.83
2023-03-27T03:07:09.877Z,1.90
2023-03-27T03:08:43.181Z,1.83
2023-03-27T03:10:16.056Z,1.63
2023-03-27T03:11:51.330Z,1.90
2023-03-27T03:13:24.054Z,2.45
2023-03-27T03:14:58.097Z,1.75
2023-03-27T03:16:30.357Z,1.42
2023-03-27T03:18:03.194Z,1.58
2023-03-27T03:19:36.044Z,2.00
2023-03-27T03:21:08.794Z,1.60
2023-03-27T03:22:41.986Z,1.90
2023-03-27T03:24:14.672Z,2.03
2023-03-27T03:25:47.842Z,1.88
2023-03-27T03:27:21.007Z,1.85
2023-03-27T03:29:00.601Z,1.60
2023-03-27T03:30:37.406Z,1.80
2023-03-27T03:32:10.153Z,1.83
2023-03-27T03:33:42.867Z,1.67
2023-03-27T03:35:15.028Z,1.80
2023-03-27T03:36:49.557Z,2.05
2023-03-27T03:38:25.072Z,1.50
2023-03-27T03:39:57.042Z,1.85
2023-03-27T03:41:29.758Z,1.95
2023-03-27T03:43:02.448Z,1.95
2023-03-27T03:44:37.078Z,2.10
2023-03-27T03:46:11.223Z,1.80
2023-03-27T03:47:43.991Z,2.17
2023-03-27T03:49:16.785Z,1.77
2023-03-27T03:50:50.589Z,1.63
2023-03-27T03:52:23.341Z,1.92
2023-03-27T03:53:56.209Z,1.80
2023-03-27T03:55:29.478Z,1.98
2023-03-27T03:57:03.100Z,1.95
2023-03-27T03:58:36.153Z,1.90
2023-03-27T04:00:08.832Z,1.85
2023-03-27T04:01:43.154Z,1.80
2023-03-27T04:03:16.394Z,2.17
2023-03-27T04:04:49.135Z,2.22
2023-03-27T04:06:25.206Z,1.75
2023-03-27T04:07:59.246Z,2.22
2023-03-27T04:09:32.693Z,2.10
2023-03-27T04:11:06.357Z,1.90
2023-03-27T04:12:39.159Z,1.83
2023-03-27T04:14:11.836Z,1.88
2023-03-27T04:15:44.894Z,2.00
2023-03-27T04:17:19.224Z,2.00
2023-03-27T04:18:54.587Z,1.92
2023-03-27T04:20:27.557Z,2.15
2023-03-27T04:22:02.399Z,1.90
2023-03-27T04:23:35.139Z,1.80
2023-03-27T04:25:09.136Z,1.98
2023-03-27T04:26:43.318Z,2.00
2023-03-27T04:28:16.796Z,1.73
2023-03-27T04:29:49.596Z,2.10
2023-03-27T04:31:22.393Z,1.67
2023-03-27T04:32:59.924Z,1.75
2023-03-27T04:34:32.793Z,1.70
2023-03-27T04:36:07.777Z,1.90
2023-03-27T04:37:41.700Z,1.90
2023-03-27T04:39:16.600Z,1.60
2023-03-27T04:40:49.214Z,2.38
2023-03-27T04:42:23.417Z,2.22
2023-03-27T04:43:56.685Z,1.92
2023-03-27T04:45:28.445Z,1.60
2023-03-27T04:47:02.012Z,2.20
2023-03-27T04:48:38.313Z,1.73
2023-03-27T04:50:12.814Z,1.88
2023-03-27T04:51:45.580Z,1.95
2023-03-27T04:53:20.305Z,1.75
2023-03-27T04:54:53.038Z,2.17
2023-03-27T04:56:25.772Z,2.20
2023-03-27T04:58:02.346Z,1.70
2023-03-27T04:59:34.308Z,2.00
2023-03-27T05:01:07.209Z,2.10
2023-03-27T05:02:40.024Z,1.98
2023-03-27T05:04:14.326Z,2.08
2023-03-27T05:05:49.549Z,2.40
2023-03-27T05:07:21.458Z,1.85
2023-03-27T05:08:54.300Z,1.77
2023-03-27T05:10:27.162Z,2.00
2023-03-27T05:11:58.909Z,2.00
2023-03-27T05:13:31.690Z,2.05
2023-03-27T05:15:06.254Z,2.60
2023-03-27T05:16:40.376Z,1.80
2023-03-27T05:18:13.206Z,2.25
2023-03-27T05:19:47.373Z,1.80
2023-03-27T05:21:19.393Z,2.15
2023-03-27T05:22:55.365Z,1.75
2023-03-27T05:24:28.265Z,2.15
2023-03-27T05:26:01.133Z,2.40
2023-03-27T05:27:34.260Z,2.15
2023-03-27T05:29:08.727Z,1.83
2023-03-27T05:30:42.988Z,2.20
2023-03-27T05:32:16.359Z,2.40
2023-03-27T05:33:49.170Z,2.13
2023-03-27T05:35:23.789Z,2.00
2023-03-27T05:36:57.827Z,2.10
2023-03-27T05:38:31.378Z,2.58
2023-03-27T05:40:04.348Z,2.65
2023-03-27T05:41:37.061Z,2.40
2023-03-27T05:43:09.934Z,2.40
2023-03-27T05:44:43.881Z,3.58
2023-03-27T05:46:20.876Z,3.78
2023-03-27T05:47:56.065Z,3.40
2023-03-27T05:49:28.763Z,3.15
2023-03-27T05:51:02.984Z,3.13
2023-03-27T05:52:35.657Z,3.38
2023-03-27T05:54:08.398Z,2.85
2023-03-27T05:55:41.665Z,3.20
2023-03-27T05:57:14.404Z,2.78
2023-03-27T05:58:47.160Z,2.75
2023-03-27T06:00:25.413Z,2.80
2023-03-27T06:01:58.880Z,2.78
2023-03-27T06:03:34.847Z,3.05
2023-03-27T06:05:13.324Z,3.13
2023-03-27T06:06:47.451Z,2.50
2023-03-27T06:08:20.693Z,3.20
2023-03-27T06:09:53.773Z,2.60
2023-03-27T06:11:26.569Z,2.70
2023-03-27T06:13:01.184Z,3.22
2023-03-27T06:14:34.031Z,3.42
2023-03-27T06:16:08.199Z,4.43
2023-03-27T06:17:42.179Z,3.55
2023-03-27T06:19:14.884Z,3.65
2023-03-27T06:20:47.619Z,4.00
2023-03-27T06:22:21.685Z,3.88
2023-03-27T06:23:56.231Z,3.78
2023-03-27T06:25:32.020Z,3.88
2023-03-27T06:27:04.905Z,3.38
2023-03-27T06:28:39.103Z,3.28
2023-03-27T06:30:12.850Z,3.40
2023-03-27T06:31:46.119Z,3.00
2023-03-27T06:33:19.195Z,3.60
2023-03-27T06:34:52.930Z,3.42
2023-03-27T06:36:27.517Z,3.30
2023-03-27T06:38:03.678Z,3.20
2023-03-27T06:39:37.347Z,3.20
2023-03-27T06:41:10.376Z,3.88
2023-03-27T06:42:50.609Z,3.08
2023-03-27T06:44:23.367Z,3.20
2023-03-27T06:45:58.130Z,2.75
2023-03-27T06:47:30.183Z,3.30
2023-03-27T06:49:02.991Z,3.08
2023-03-27T06:50:36.009Z,3.03
2023-03-27T06:52:08.874Z,3.50
2023-03-27T06:53:43.376Z,2.83
2023-03-27T06:55:16.974Z,3.10
2023-03-27T06:56:50.257Z,2.72
2023-03-27T06:58:23.082Z,2.78
2023-03-27T06:59:55.840Z,3.15
2023-03-27T07:01:28.644Z,2.88
2023-03-27T07:03:03.219Z,3.30
2023-03-27T07:04:35.954Z,2.75
2023-03-27T07:06:10.994Z,2.60
2023-03-27T07:07:44.510Z,3.03
2023-03-27T07:09:19.103Z,3.55
2023-03-27T07:11:10.797Z,2.97
2023-03-27T07:12:46.662Z,2.58
2023-03-27T07:14:19.525Z,3.22
2023-03-27T07:15:52.378Z,2.92
2023-03-27T07:17:27.982Z,2.63
2023-03-27T07:19:05.210Z,2.60
2023-03-27T07:20:38.177Z,3.03
2023-03-27T07:22:10.989Z,3.05
2023-03-27T07:23:43.762Z,3.35
2023-03-27T07:25:18.159Z,3.28
2023-03-27T07:26:50.919Z,2.95
2023-03-27T07:28:23.700Z,3.08
2023-03-27T07:29:58.681Z,2.60
2023-03-27T07:31:48.986Z,2.60
2023-03-27T07:33:24.356Z,2.90
2023-03-27T07:34:57.384Z,3.03
2023-03-27T07:36:30.270Z,2.85
2023-03-27T07:38:03.993Z,3.05
2023-03-27T07:39:36.703Z,2.63
2023-03-27T07:41:12.117Z,3.28
2023-03-27T07:42:46.101Z,2.58
2023-03-27T07:44:18.892Z,2.88
2023-03-27T07:45:51.624Z,2.47
2023-03-27T07:47:25.207Z,2.35
2023-03-27T07:48:58.393Z,2.92
2023-03-27T07:50:31.124Z,2.40
2023-03-27T07:52:04.490Z,2.50
2023-03-27T07:53:37.176Z,2.55
2023-03-27T07:55:12.250Z,2.20
2023-03-27T07:56:46.593Z,2.28
2023-03-27T07:58:21.284Z,2.20
2023-03-27T07:59:57.319Z,2.13
2023-03-27T08:01:30.510Z,2.05
2023-03-27T08:03:08.055Z,2.20
2023-03-27T08:04:41.110Z,2.22
2023-03-27T08:06:13.908Z,2.28
2023-03-27T08:07:47.287Z,2.35
2023-03-27T08:09:20.023Z,1.73
2023-03-27T08:10:55.516Z,1.95
2023-03-27T08:12:29.832Z,2.10
2023-03-27T08:14:03.342Z,2.50
2023-03-27T08:15:36.022Z,2.40
2023-03-27T08:17:15.755Z,2.05
2023-03-27T08:18:49.681Z,1.95
2023-03-27T08:20:23.270Z,1.73
2023-03-27T08:21:56.454Z,1.85
2023-03-27T08:23:30.907Z,1.73
2023-03-27T08:25:04.973Z,1.90
2023-03-27T08:26:38.077Z,2.10
2023-03-27T08:28:12.326Z,2.07
2023-03-27T08:29:45.080Z,2.00
2023-03-27T08:31:18.384Z,2.73
2023-03-27T08:32:51.174Z,2.20
2023-03-27T08:34:24.306Z,1.73
2023-03-27T08:35:58.211Z,1.73
2023-03-27T08:37:31.317Z,1.70
2023-03-27T08:39:04.865Z,1.73
2023-03-27T08:40:39.179Z,1.83
2023-03-27T08:42:19.104Z,1.30
2023-03-27T08:43:56.224Z,1.40
2023-03-27T08:45:33.114Z,1.60
2023-03-27T08:47:11.176Z,1.50
2023-03-27T08:48:48.362Z,1.93
2023-03-27T08:50:31.810Z,1.73
2023-03-27T08:52:07.043Z,1.47
2023-03-27T08:53:46.038Z,1.47
2023-03-27T08:55:22.293Z,1.50
2023-03-27T08:56:55.132Z,1.60
2023-03-27T08:58:27.996Z,1.87
2023-03-27T09:00:05.276Z,1.70
2023-03-27T09:01:45.370Z,2.00
2023-03-27T09:03:25.664Z,2.00
2023-03-27T09:05:04.858Z,1.80
2023-03-27T09:06:43.894Z,1.63
2023-03-27T09:08:28.799Z,2.00
2023-03-27T09:10:10.276Z,2.17
2023-03-27T09:11:52.965Z,1.90
2023-03-27T09:13:36.203Z,1.63
2023-03-27T09:15:14.247Z,2.00
2023-03-27T09:16:50.741Z,1.90
2023-03-27T09:18:28.430Z,1.73
2023-03-27T09:20:07.345Z,1.90
2023-03-27T09:21:45.502Z,1.70
2023-03-27T09:23:23.053Z,1.70
2023-03-27T09:24:59.545Z,2.07
2023-03-27T09:26:36.414Z,1.50
2023-03-27T09:28:27.222Z,1.87
2023-03-27T09:30:18.537Z,1.80
2023-03-27T09:31:54.962Z,2.00
2023-03-27T09:33:27.960Z,2.10
2023-03-27T09:35:00.708Z,2.10
2023-03-27T09:36:35.641Z,1.87
2023-03-27T09:38:29.437Z,2.00
2023-03-27T09:40:03.347Z,1.83
2023-03-27T09:41:41.283Z,1.77
2023-03-27T09:43:18.156Z,1.63
2023-03-27T09:44:55.987Z,1.60
2023-03-27T09:46:29.813Z,1.60
2023-03-27T09:48:07.440Z,2.50
2023-03-27T09:49:44.997Z,1.90
2023-03-27T09:51:48.349Z,1.93
2023-03-27T09:53:23.022Z,2.00
2023-03-27T09:54:56.804Z,1.97
2023-03-27T09:56:29.797Z,1.90
2023-03-27T09:58:14.048Z,1.70
2023-03-27T09:59:58.643Z,1.63
2023-03-27T10:01:34.269Z,1.77
2023-03-27T10:03:16.705Z,1.70
2023-03-27T10:04:59.952Z,1.70
2023-03-27T10:06:38.732Z,1.10
2023-03-27T10:08:43.613Z,1.17
2023-03-27T10:10:19.829Z,1.17
2023-03-27T10:12:01.042Z,1.20
2023-03-27T10:13:34.426Z,1.00
2023-03-27T10:15:23.837Z,0.97
2023-03-27T10:16:57.301Z,1.30
2023-03-27T10:18:33.739Z,1.03
2023-03-27T10:20:13.227Z,1.30
2023-03-27T10:21:46.469Z,1.10
2023-03-27T10:23:25.662Z,0.70
2023-03-27T10:25:00.253Z,1.00
2023-03-27T10:26:38.479Z,0.80
2023-03-27T10:28:18.802Z,0.70
2023-03-27T10:29:51.496Z,0.90
2023-03-27T10:31:30.986Z,1.00
2023-03-27T10:33:04.188Z,1.20
2023-03-27T10:34:43.379Z,1.47
2023-03-27T10:36:16.365Z,1.80
2023-03-27T10:37:51.256Z,1.42
2023-03-27T10:39:29.314Z,1.63
2023-03-27T10:41:07.793Z,1.40
2023-03-27T10:42:40.758Z,1.88
2023-03-27T10:44:17.690Z,2.00
2023-03-27T10:45:53.665Z,1.77
2023-03-27T10:47:28.730Z,2.00
2023-03-27T10:49:08.784Z,1.97
2023-03-27T10:50:53.072Z,1.90
2023-03-27T10:52:32.027Z,2.00
2023-03-27T10:54:11.014Z,1.90
2023-03-27T10:55:56.430Z,1.70
2023-03-27T10:57:31.485Z,2.00
2023-03-27T10:59:09.588Z,1.90
2023-03-27T11:00:49.493Z,2.23
2023-03-27T11:02:31.524Z,2.03
2023-03-27T11:04:09.565Z,2.43
2023-03-27T11:05:46.674Z,2.10
2023-03-27T11:07:25.641Z,2.20
2023-03-27T11:09:05.486Z,1.80
2023-03-27T11:10:41.769Z,2.37
2023-03-27T11:12:14.974Z,2.30
2023-03-27T11:13:50.029Z,2.17
2023-03-27T11:15:27.666Z,2.47
2023-03-27T11:17:04.840Z,2.10
2023-03-27T11:18:43.112Z,2.37
2023-03-27T11:20:23.246Z,2.30
2023-03-27T11:22:04.070Z,2.33
2023-03-27T11:23:40.492Z,2.30
2023-03-27T11:25:20.782Z,2.87
2023-03-27T11:27:03.076Z,2.60
2023-03-27T11:28:42.781Z,2.67
2023-03-27T11:30:35.442Z,2.70
2023-03-27T11:32:19.460Z,2.60
2023-03-27T11:33:56.068Z,2.60
2023-03-27T11:35:34.225Z,2.90
2023-03-27T11:37:17.486Z,2.77
2023-03-27T11:39:07.052Z,2.60
2023-03-27T11:40:43.017Z,2.57
2023-03-27T11:42:19.769Z,2.40
2023-03-27T11:43:52.678Z,2.43
2023-03-27T11:45:27.701Z,2.60
2023-03-27T11:47:18.750Z,2.60
2023-03-27T11:49:14.945Z,2.63
2023-03-27T11:50:53.282Z,2.70
2023-03-27T11:52:39.240Z,2.50
2023-03-27T11:54:28.325Z,2.27
2023-03-27T11:56:14.376Z,1.90
2023-03-27T11:58:04.189Z,1.60
2023-03-27T12:00:12.080Z,1.77
2023-03-27T12:01:53.412Z,1.20
2023-03-27T12:03:45.086Z,1.37
2023-03-27T12:05:24.964Z,1.50
2023-03-27T12:07:12.218Z,1.33
2023-03-27T12:09:03.655Z,1.10
2023-03-27T12:10:38.391Z,1.60
2023-03-27T12:12:40.683Z,1.40
2023-03-27T12:14:40.969Z,1.30
2023-03-27T12:16:48.146Z,1.10
2023-03-27T12:18:36.263Z,1.33
2023-03-27T12:20:58.689Z,1.20
2023-03-27T12:22:43.528Z,1.07
2023-03-27T12:24:33.836Z,1.00
2023-03-27T12:26:16.835Z,0.90
2023-03-27T12:28:02.150Z,0.90
2023-03-27T12:29:48.438Z,0.70
2023-03-27T12:31:49.411Z,0.90
2023-03-27T12:33:48.734Z,1.07
2023-03-27T12:35:23.721Z,1.20
2023-03-27T12:36:59.270Z,0.90
2023-03-27T12:38:34.777Z,1.00
2023-03-27T12:40:27.921Z,1.10
2023-03-27T12:42:00.674Z,0.82
2023-03-27T12:43:39.535Z,1.08
2023-03-27T12:45:17.902Z,1.40
2023-03-27T12:47:08.923Z,1.30
2023-03-27T12:48:55.872Z,1.20
2023-03-27T12:50:32.623Z,1.00
2023-03-27T12:52:06.135Z,1.15
2023-03-27T12:53:51.007Z,1.10
2023-03-27T12:55:34.109Z,1.00
2023-03-27T12:57:15.404Z,1.25
2023-03-27T12:58:51.338Z,1.30
2023-03-27T13:00:27.909Z,1.10
2023-03-27T13:02:50.959Z,1.45
2023-03-27T13:04:54.033Z,1.13
2023-03-27T13:06:36.343Z,1.60
2023-03-27T13:08:37.451Z,1.60
2023-03-27T13:10:27.291Z,1.58
2023-03-27T13:12:20.328Z,1.98
2023-03-27T13:14:21.379Z,1.40
2023-03-27T13:16:13.893Z,1.30
2023-03-27T13:18:03.960Z,1.50
2023-03-27T13:19:46.438Z,1.35
2023-03-27T13:21:29.617Z,1.50
2023-03-27T13:23:26.658Z,1.80
2023-03-27T13:25:18.464Z,1.40
2023-03-27T13:27:03.787Z,1.60
2023-03-27T13:28:42.241Z,1.45
2023-03-27T13:30:42.806Z,1.63
2023-03-27T13:32:33.067Z,1.35
2023-03-27T13:34:15.605Z,1.60
2023-03-27T13:36:03.495Z,1.58
2023-03-27T13:38:00.704Z,1.50
2023-03-27T13:39:41.220Z,1.98
2023-03-27T13:41:52.734Z,1.40
2023-03-27T13:43:28.443Z,1.50
2023-03-27T13:45:08.241Z,1.33
2023-03-27T13:46:48.193Z,1.40
2023-03-27T13:48:57.423Z,1.60
2023-03-27T13:50:52.574Z,1.20
2023-03-27T13:52:57.440Z,1.40
2023-03-27T13:55:16.565Z,1.60
2023-03-27T13:57:01.756Z,1.40
2023-03-27T13:58:59.212Z,1.50
2023-03-27T14:00:48.804Z,1.40
2023-03-27T14:02:40.404Z,1.70
2023-03-27T14:04:29.446Z,1.60
2023-03-27T14:06:21.597Z,1.30
2023-03-27T14:08:07.939Z,1.58
2023-03-27T14:09:54.854Z,1.27
2023-03-27T14:11:54.659Z,1.50
2023-03-27T14:13:38.150Z,1.60
2023-03-27T14:15:33.766Z,1.50
2023-03-27T14:17:34.592Z,1.30
2023-03-27T14:19:38.802Z,1.50
2023-03-27T14:21:27.611Z,1.38
2023-03-27T14:23:07.398Z,1.40
2023-03-27T14:24:44.640Z,1.45
2023-03-27T14:26:21.361Z,1.57
2023-03-27T14:27:55.443Z,1.38
2023-03-27T14:29:28.860Z,1.40
2023-03-27T14:31:06.939Z,1.30
2023-03-27T14:32:42.858Z,1.65
2023-03-27T14:34:22.434Z,2.00
2023-03-27T14:35:58.179Z,1.77
2023-03-27T14:37:35.897Z,1.90
2023-03-27T14:39:16.727Z,2.10
2023-03-27T14:40:51.919Z,1.75
2023-03-27T14:42:32.073Z,2.05
2023-03-27T14:44:05.852Z,2.08
2023-03-27T14:45:40.630Z,2.42
2023-03-27T14:47:17.699Z,2.58
2023-03-27T14:48:55.994Z,2.00
2023-03-27T14:50:30.840Z,1.77
2023-03-27T14:52:07.622Z,1.75
2023-03-27T14:53:44.106Z,1.90
2023-03-27T14:55:18.858Z,1.77
2023-03-27T14:56:52.156Z,1.60
2023-03-27T14:58:26.114Z,1.80
2023-03-27T14:59:59.138Z,1.63
2023-03-27T15:01:32.240Z,1.60
2023-03-27T15:03:11.295Z,1.40
2023-03-27T15:04:45.541Z,1.17
2023-03-27T15:06:21.063Z,1.30
2023-03-27T15:07:55.504Z,1.40
2023-03-27T15:09:28.189Z,1.20
2023-03-27T15:11:01.392Z,1.58
2023-03-27T15:12:35.132Z,1.20
2023-03-27T15:14:20.576Z,1.10
2023-03-27T15:15:56.931Z,1.25
2023-03-27T15:17:31.619Z,1.15
2023-03-27T15:19:12.211Z,1.20
2023-03-27T15:20:47.540Z,1.25
2023-03-27T15:22:23.773Z,1.30
2023-03-27T15:24:01.925Z,1.25
2023-03-27T15:25:43.722Z,1.25
2023-03-27T15:27:20.965Z,1.55
2023-03-27T15:29:01.610Z,1.50
2023-03-27T15:30:37.447Z,1.50
2023-03-27T15:32:14.556Z,1.50
2023-03-27T15:33:52.827Z,1.45
2023-03-27T15:35:31.142Z,0.95
2023-03-27T15:37:10.966Z,1.23
2023-03-27T15:38:44.884Z,1.20
2023-03-27T15:40:42.177Z,1.17
2023-03-27T15:42:16.252Z,1.20
2023-03-27T15:43:49.280Z,1.23
2023-03-27T15:45:24.180Z,1.20
2023-03-27T15:46:58.669Z,1.40
2023-03-27T15:48:35.029Z,1.10
2023-03-27T15:50:17.711Z,1.10
2023-03-27T15:51:50.841Z,1.10
2023-03-27T15:53:36.941Z,1.02
2023-03-27T15:55:10.883Z,1.33
2023-03-27T15:56:45.379Z,1.20
2023-03-27T15:58:24.843Z,1.15
2023-03-27T16:00:04.416Z,1.30
2023-03-27T16:01:39.063Z,1.05
2023-03-27T16:03:19.316Z,1.10
2023-03-27T16:04:55.012Z,1.00
2023-03-27T16:06:30.850Z,1.23
2023-03-27T16:08:03.792Z,1.20
2023-03-27T16:09:42.984Z,1.25
2023-03-27T16:11:33.663Z,1.20
2023-03-27T16:13:09.009Z,1.10
2023-03-27T16:14:44.928Z,1.08
2023-03-27T16:16:23.487Z,1.40
2023-03-27T16:17:57.962Z,1.25
2023-03-27T16:19:42.725Z,1.40
2023-03-27T16:21:15.704Z,1.50
2023-03-27T16:22:48.582Z,1.50
2023-03-27T16:24:21.527Z,1.20
2023-03-27T16:25:56.703Z,1.60
2023-03-27T16:27:33.855Z,1.27
2023-03-27T16:29:06.979Z,1.30
2023-03-27T16:30:41.414Z,1.13
2023-03-27T16:32:14.139Z,1.25
2023-03-27T16:33:47.146Z,1.40
2023-03-27T16:35:19.948Z,1.30
2023-03-27T16:36:52.774Z,1.27
2023-03-27T16:38:26.122Z,1.50
2023-03-27T16:39:59.239Z,1.30
2023-03-27T16:41:33.391Z,1.20
2023-03-27T16:43:06.355Z,1.30
2023-03-27T16:44:39.106Z,1.20
2023-03-27T16:46:18.024Z,1.30
2023-03-27T16:47:53.069Z,1.20
2023-03-27T16:49:26.244Z,1.02
2023-03-27T16:50:59.255Z,1.10
2023-03-27T16:52:32.117Z,1.20
2023-03-27T16:54:05.316Z,0.85
2023-03-27T16:55:38.071Z,0.77
2023-03-27T16:57:12.350Z,0.88
2023-03-27T16:58:45.074Z,0.85
2023-03-27T17:00:19.996Z,1.00
2023-03-27T17:01:52.714Z,1.10
2023-03-27T17:03:25.477Z,0.90
2023-03-27T17:04:58.249Z,0.90
2023-03-27T17:06:31.225Z,1.30
2023-03-27T17:08:06.724Z,1.00
2023-03-27T17:09:40.121Z,1.10
2023-03-27T17:11:14.034Z,1.20
2023-03-27T17:12:48.340Z,1.05
2023-03-27T17:14:21.409Z,1.38
2023-03-27T17:15:54.786Z,1.30
2023-03-27T17:17:30.215Z,1.20
2023-03-27T17:19:03.094Z,1.20
2023-03-27T17:20:35.841Z,1.23
2023-03-27T17:22:08.737Z,1.30
2023-03-27T17:23:43.417Z,1.27
2023-03-27T17:25:17.606Z,1.30
2023-03-27T17:26:50.381Z,1.38
2023-03-27T17:28:24.476Z,1.30
2023-03-27T17:29:57.502Z,1.35
2023-03-27T17:31:30.961Z,1.20
2023-03-27T17:33:04.942Z,1.40
2023-03-27T17:34:37.727Z,1.70
2023-03-27T17:36:11.573Z,1.80
2023-03-27T17:37:44.292Z,1.60
2023-03-27T17:39:17.027Z,1.80
2023-03-27T17:40:50.090Z,1.80
2023-03-27T17:42:24.933Z,1.40
2023-03-27T17:43:59.278Z,1.50
2023-03-27T17:45:31.980Z,1.40
2023-03-27T17:47:06.141Z,1.33
2023-03-27T17:48:38.972Z,1.25
2023-03-27T17:50:11.909Z,1.60
2023-03-27T17:51:44.584Z,1.30
2023-03-27T17:53:17.313Z,1.42
2023-03-27T17:54:50.462Z,1.40
2023-03-27T17:56:23.244Z,1.20
2023-03-27T17:58:07.756Z,1.33
2023-03-27T17:59:46.230Z,1.20
2023-03-27T18:01:21.018Z,1.20
2023-03-27T18:02:53.866Z,1.30
2023-03-27T18:04:27.063Z,1.30
2023-03-27T18:06:04.184Z,1.40
2023-03-27T18:07:36.945Z,1.90
2023-03-27T18:09:09.967Z,2.00
2023-03-27T18:10:45.053Z,1.90
2023-03-27T18:12:18.381Z,1.92
2023-03-27T18:13:52.937Z,2.22
2023-03-27T18:15:27.261Z,1.45
2023-03-27T18:17:00.107Z,1.52
2023-03-27T18:18:33.221Z,2.58
2023-03-27T18:20:10.098Z,1.50
2023-03-27T18:21:42.850Z,2.38
2023-03-27T18:23:15.576Z,1.73
2023-03-27T18:24:48.456Z,2.13
2023-03-27T18:26:21.156Z,2.20
2023-03-27T18:27:53.837Z,2.35
2023-03-27T18:29:26.628Z,2.70
2023-03-27T18:31:03.402Z,1.83
2023-03-27T18:32:36.185Z,2.40
2023-03-27T18:34:09.395Z,1.60
2023-03-27T18:35:42.879Z,1.60
2023-03-27T18:37:15.654Z,1.90
2023-03-27T18:38:49.981Z,1.88
2023-03-27T18:40:23.017Z,1.73
2023-03-27T18:41:58.572Z,1.60
2023-03-27T18:43:31.915Z,2.30
2023-03-27T18:45:05.994Z,1.90
2023-03-27T18:46:40.150Z,1.50
2023-03-27T18:48:13.199Z,2.38
2023-03-27T18:49:46.157Z,1.80
2023-03-27T18:51:19.021Z,2.33
2023-03-27T18:52:51.716Z,2.05
2023-03-27T18:54:24.448Z,1.88
2023-03-27T18:55:58.277Z,1.40
2023-03-27T18:57:31.713Z,1.90
2023-03-27T18:59:04.867Z,1.80
2023-03-27T19:00:37.867Z,1.70
2023-03-27T19:02:12.093Z,2.25
2023-03-27T19:03:44.981Z,1.65
2023-03-27T19:05:18.191Z,1.70
2023-03-27T19:06:51.077Z,1.75
2023-03-27T19:08:22.838Z,1.80
2023-03-27T19:09:55.743Z,2.20
2023-03-27T19:11:28.611Z,2.20
2023-03-27T19:13:02.061Z,2.20
2023-03-27T19:14:35.380Z,1.90
2023-03-27T19:16:14.267Z,2.40
2023-03-27T19:17:49.566Z,2.03
2023-03-27T19:19:22.898Z,1.90
2023-03-27T19:20:56.227Z,1.80
2023-03-27T19:22:29.126Z,1.40
2023-03-27T19:24:01.802Z,1.60
2023-03-27T19:25:35.234Z,3.08
2023-03-27T19:27:08.397Z,2.20
2023-03-27T19:28:57.008Z,3.00
2023-03-27T19:30:30.464Z,1.50
2023-03-27T19:32:03.181Z,1.40
2023-03-27T19:33:37.460Z,1.35
2023-03-27T19:35:10.758Z,1.60
2023-03-27T19:36:43.484Z,1.50
2023-03-27T19:38:16.675Z,1.90
2023-03-27T19:39:49.406Z,1.50
2023-03-27T19:41:22.210Z,1.70
2023-03-27T19:42:54.961Z,1.58
2023-03-27T19:44:28.022Z,1.35
2023-03-27T19:46:15.034Z,1.55
2023-03-27T19:47:49.087Z,1.40
2023-03-27T19:49:23.204Z,1.30
2023-03-27T19:50:59.487Z,1.38
2023-03-27T19:52:33.942Z,1.40
2023-03-27T19:54:07.769Z,1.40
2023-03-27T19:55:41.103Z,1.48
2023-03-27T19:57:13.933Z,1.33
2023-03-27T19:58:46.732Z,1.63
2023-03-27T20:00:19.958Z,1.70
2023-03-27T20:01:52.957Z,1.40
2023-03-27T20:03:27.357Z,1.45
2023-03-27T20:05:01.612Z,2.20
2023-03-27T20:06:34.291Z,1.88
2023-03-27T20:08:07.214Z,1.60
2023-03-27T20:09:39.945Z,1.30
2023-03-27T20:11:12.758Z,1.98
2023-03-27T20:12:45.595Z,2.00
2023-03-27T20:14:18.295Z,1.98
2023-03-27T20:15:52.435Z,1.73
2023-03-27T20:17:28.218Z,2.20
2023-03-27T20:19:04.565Z,1.70
2023-03-27T20:20:40.025Z,1.40
2023-03-27T20:22:12.728Z,1.58
2023-03-27T20:23:45.398Z,1.70
2023-03-27T20:25:18.255Z,1.95
2023-03-27T20:26:53.815Z,1.77
2023-03-27T20:28:27.331Z,1.70
2023-03-27T20:30:01.877Z,1.92
2023-03-27T20:31:34.760Z,1.77
2023-03-27T20:33:09.027Z,1.63
2023-03-27T20:34:41.824Z,1.65
2023-03-27T20:36:18.019Z,1.63
2023-03-27T20:37:56.262Z,1.70
2023-03-27T20:39:29.367Z,1.40
2023-03-27T20:41:03.583Z,1.75
2023-03-27T20:42:38.937Z,1.77
2023-03-27T20:44:15.337Z,1.52
2023-03-27T20:45:51.926Z,1.60
2023-03-27T20:47:24.908Z,1.83
2023-03-27T20:48:57.815Z,1.80
2023-03-27T20:50:30.963Z,1.60
2023-03-27T20:52:06.111Z,1.73
2023-03-27T20:53:39.857Z,1.73
2023-03-27T20:55:22.719Z,1.77
2023-03-27T20:56:59.474Z,1.65
2023-03-27T20:58:34.105Z,1.67
2023-03-27T21:00:08.709Z,1.65
2023-03-27T21:01:42.965Z,2.00
2023-03-27T21:03:16.422Z,1.75
2023-03-27T21:04:49.244Z,2.00
2023-03-27T21:06:22.086Z,1.67
2023-03-27T21:07:56.469Z,1.60
2023-03-27T21:09:29.232Z,1.60
2023-03-27T21:11:02.655Z,2.20
2023-03-27T21:12:35.452Z,2.15
2023-03-27T21:14:08.342Z,1.73
2023-03-27T21:15:41.140Z,1.63
2023-03-27T21:17:13.841Z,1.60
2023-03-27T21:18:46.785Z,1.70
2023-03-27T21:20:19.673Z,1.60
2023-03-27T21:21:52.484Z,1.63
2023-03-27T21:23:26.571Z,1.60
2023-03-27T21:24:59.375Z,1.80
2023-03-27T21:26:32.083Z,1.60
2023-03-27T21:28:04.940Z,1.63
2023-03-27T21:29:38.000Z,1.70
2023-03-27T21:31:11.600Z,1.65
2023-03-27T21:32:45.498Z,1.88
2023-03-27T21:34:18.266Z,1.83
2023-03-27T21:35:51.232Z,1.45
2023-03-27T21:37:23.016Z,1.60